Time;durP1;ratioP1;P1;durP2;ratioP2;P2;SDS_P1;SDS_P2;PMS_P1;PMS_P2;Temp;Humidity;BMP_temperature;BMP_pressure;BME280_temperature;BME280_humidity;BME280_pressure;Samples;Min_cycle;Max_cycle;Signal;HPM_P1;HPM_P2
2024/01/02 00:01:47;;;;;;;22.13;9.88;;;7.60;99.90;;;;;;5112341;28;20385;-71
2024/01/02 00:04:12;;;;;;;23.17;9.88;;;7.70;99.90;;;;;;5112200;28;20125;-73
2024/01/02 00:06:38;;;;;;;20.90;9.63;;;7.60;99.90;;;;;;5112115;28;20039;-71
2024/01/02 00:09:04;;;;;;;29.38;10.00;;;7.60;99.90;;;;;;5097152;28;20044;-74
2024/01/02 00:11:29;;;;;;;22.33;9.32;;;7.60;99.90;;;;;;5090578;28;20020;-71
2024/01/02 00:13:55;;;;;;;29.00;10.75;;;7.60;99.90;;;;;;5109459;28;20050;-71
2024/01/02 00:16:20;;;;;;;23.63;9.95;;;7.60;99.90;;;;;;5112123;28;20023;-72
2024/01/02 00:18:46;;;;;;;25.92;9.93;;;7.60;99.90;;;;;;5112140;28;20020;-72
2024/01/02 00:21:11;;;;;;;22.65;9.27;;;7.60;99.90;;;;;;5112514;28;20027;-72
2024/01/02 00:23:37;;;;;;;23.50;9.38;;;7.60;99.90;;;;;;5110412;28;20392;-72
2024/01/02 00:26:03;;;;;;;22.75;9.27;;;7.70;99.90;;;;;;5111479;28;20468;-72
2024/01/02 00:28:29;;;;;;;26.88;9.95;;;7.70;99.90;;;;;;5109834;28;20041;-72
2024/01/02 00:30:55;;;;;;;18.30;8.85;;;7.70;99.90;;;;;;5116252;28;20500;-72
2024/01/02 00:33:20;;;;;;;18.85;7.47;;;7.70;99.90;;;;;;5116290;28;20059;-72
2024/01/02 00:35:46;;;;;;;16.85;7.90;;;7.70;99.90;;;;;;5097059;28;20032;-72
2024/01/02 00:38:11;;;;;;;18.00;8.25;;;7.70;99.90;;;;;;5107854;28;20084;-72
2024/01/02 00:40:37;;;;;;;22.10;8.57;;;7.70;99.90;;;;;;5109013;28;20089;-72
2024/01/02 00:43:02;;;;;;;18.42;8.13;;;7.70;99.90;;;;;;5095366;28;20036;-72
2024/01/02 00:45:28;;;;;;;18.95;8.52;;;7.70;99.90;;;;;;5109089;28;20028;-72
2024/01/02 00:47:54;;;;;;;18.67;8.05;;;7.80;99.90;;;;;;5112430;28;20049;-72
2024/01/02 00:50:21;;;;;;;19.42;8.48;;;7.70;99.90;;;;;;5115667;28;20065;-72
2024/01/02 00:52:47;;;;;;;21.65;8.35;;;7.70;99.90;;;;;;5115736;28;20020;-72
2024/01/02 00:55:12;;;;;;;18.15;7.53;;;7.70;99.90;;;;;;5109846;28;20035;-72
2024/01/02 00:57:38;;;;;;;19.98;8.35;;;7.70;99.90;;;;;;5113548;28;20023;-72
2024/01/02 01:00:05;;;;;;;17.50;7.53;;;7.80;99.90;;;;;;5115638;28;20031;-72
2024/01/02 01:02:30;;;;;;;19.20;7.70;;;7.80;99.90;;;;;;5115566;28;20024;-72
2024/01/02 01:04:56;;;;;;;15.57;7.22;;;7.80;99.90;;;;;;5115670;28;20055;-72
2024/01/02 01:07:22;;;;;;;21.00;7.65;;;7.80;99.90;;;;;;5113019;28;20035;-72
2024/01/02 01:09:47;;;;;;;22.05;7.90;;;7.80;99.90;;;;;;5115331;28;20077;-72
2024/01/02 01:12:13;;;;;;;21.30;7.68;;;7.90;99.90;;;;;;5112859;28;20085;-72
2024/01/02 01:14:38;;;;;;;19.52;7.82;;;7.90;99.90;;;;;;5114660;28;20058;-72
2024/01/02 01:17:05;;;;;;;16.42;6.80;;;7.90;99.90;;;;;;5115709;28;20036;-72
2024/01/02 01:19:32;;;;;;;18.88;7.60;;;7.90;99.90;;;;;;5115098;28;20517;-72
2024/01/02 01:21:57;;;;;;;16.75;6.95;;;7.90;99.90;;;;;;5096830;28;20033;-72
2024/01/02 01:24:23;;;;;;;16.92;6.75;;;7.90;99.90;;;;;;5094548;28;20070;-72
2024/01/02 01:26:52;;;;;;;13.75;6.80;;;7.90;99.90;;;;;;5094688;28;20039;-72
2024/01/02 01:29:20;;;;;;;17.05;6.53;;;7.90;99.90;;;;;;5105719;28;21281;-72
2024/01/02 01:31:45;;;;;;;16.58;6.68;;;7.90;99.90;;;;;;5113714;28;20445;-71
2024/01/02 01:34:11;;;;;;;16.23;6.45;;;7.90;99.90;;;;;;5114482;28;20106;-72
2024/01/02 01:36:37;;;;;;;10.23;6.40;;;7.90;99.90;;;;;;5115130;28;20024;-72
2024/01/02 01:39:04;;;;;;;13.48;5.88;;;7.90;99.90;;;;;;5114951;28;20031;-72
2024/01/02 01:41:30;;;;;;;13.13;5.72;;;7.90;99.90;;;;;;5113942;28;20027;-72
2024/01/02 01:43:56;;;;;;;16.40;5.80;;;7.90;99.90;;;;;;5115192;28;20024;-72
2024/01/02 01:46:24;;;;;;;12.57;5.95;;;7.90;99.90;;;;;;5113640;28;20502;-72
2024/01/02 01:48:49;;;;;;;14.40;5.68;;;7.90;99.90;;;;;;5095324;28;20436;-72
2024/01/02 01:51:16;;;;;;;15.52;5.40;;;7.90;99.90;;;;;;5114651;28;20063;-72
2024/01/02 01:53:43;;;;;;;12.60;5.22;;;7.90;99.90;;;;;;5114141;28;20024;-72
2024/01/02 01:56:09;;;;;;;16.30;5.82;;;8.00;99.90;;;;;;5101469;28;20119;-72
2024/01/02 01:58:35;;;;;;;12.85;5.43;;;8.00;99.90;;;;;;5093978;28;20553;-72
2024/01/02 02:01:00;;;;;;;12.77;5.07;;;8.00;99.90;;;;;;5105874;28;20080;-72
2024/01/02 02:03:27;;;;;;;11.48;5.20;;;8.00;99.90;;;;;;5106661;28;20063;-72
2024/01/02 02:05:53;;;;;;;12.18;5.03;;;8.00;99.90;;;;;;5104134;28;20024;-72
2024/01/02 02:08:18;;;;;;;10.30;5.78;;;8.00;99.90;;;;;;5114450;28;20031;-72
2024/01/02 02:10:44;;;;;;;13.10;5.35;;;8.00;99.90;;;;;;5099186;28;20051;-72
2024/01/02 02:13:10;;;;;;;11.18;5.78;;;8.00;99.90;;;;;;5112063;28;20031;-72
2024/01/02 02:15:38;;;;;;;9.65;5.53;;;8.00;99.90;;;;;;5114284;28;20028;-72
2024/01/02 02:18:05;;;;;;;10.80;5.45;;;8.10;99.90;;;;;;5114343;28;20406;-72
2024/01/02 02:20:30;;;;;;;7.57;5.07;;;8.00;99.90;;;;;;5114492;28;20038;-72
2024/01/02 02:22:56;;;;;;;13.27;5.68;;;8.10;99.90;;;;;;5113909;28;20031;-72
2024/01/02 02:25:22;;;;;;;11.82;4.90;;;8.00;99.90;;;;;;5114329;28;20024;-72
2024/01/02 02:27:48;;;;;;;8.07;5.22;;;8.10;99.90;;;;;;5112119;28;20431;-72
2024/01/02 02:30:14;;;;;;;10.77;5.15;;;8.10;99.90;;;;;;5112444;28;20381;-72
2024/01/02 02:32:39;;;;;;;7.57;4.90;;;8.10;99.90;;;;;;5114068;28;20461;-72
2024/01/02 02:35:05;;;;;;;7.57;4.80;;;8.10;99.90;;;;;;5111567;28;20103;-72
2024/01/02 02:37:31;;;;;;;6.70;4.57;;;8.10;99.90;;;;;;5113643;28;20028;-72
2024/01/02 02:39:57;;;;;;;7.28;4.72;;;8.10;99.90;;;;;;5113978;28;20035;-72
2024/01/02 02:42:22;;;;;;;5.85;4.50;;;8.20;99.90;;;;;;5113845;28;20056;-72
2024/01/02 02:44:48;;;;;;;7.80;4.72;;;8.10;99.90;;;;;;5112053;28;20446;-71
2024/01/02 02:47:14;;;;;;;7.35;4.80;;;8.20;99.90;;;;;;5112960;28;20111;-72
2024/01/02 02:49:40;;;;;;;7.63;4.25;;;8.20;99.90;;;;;;5113587;28;20027;-72
2024/01/02 02:52:06;;;;;;;8.68;4.30;;;8.20;99.90;;;;;;5110738;28;20106;-72
2024/01/02 02:54:31;;;;;;;6.80;4.55;;;8.20;99.90;;;;;;5113818;28;20501;-72
2024/01/02 02:56:57;;;;;;;5.45;4.18;;;8.20;99.90;;;;;;5100363;28;20119;-72
2024/01/02 02:59:23;;;;;;;8.20;4.22;;;8.20;99.90;;;;;;5108749;28;20400;-71
2024/01/02 03:01:48;;;;;;;4.78;4.15;;;8.20;99.90;;;;;;5113116;28;20020;-71
2024/01/02 03:04:14;;;;;;;6.95;3.83;;;8.20;99.90;;;;;;5113459;28;20054;-71
2024/01/02 03:06:39;;;;;;;6.03;3.45;;;8.20;99.90;;;;;;5113385;28;20405;-71
2024/01/02 03:09:06;;;;;;;7.22;4.00;;;8.20;99.90;;;;;;5112236;28;20043;-72
2024/01/02 03:11:32;;;;;;;7.00;4.00;;;8.20;99.90;;;;;;5093300;28;20043;-72
2024/01/02 03:13:58;;;;;;;10.35;4.40;;;8.30;99.90;;;;;;5092051;28;20024;-71
2024/01/02 03:16:24;;;;;;;4.30;3.90;;;8.20;99.90;;;;;;5093083;28;20480;-71
2024/01/02 03:18:50;;;;;;;4.65;3.60;;;8.30;99.90;;;;;;5093104;28;20051;-71
2024/01/02 03:21:16;;;;;;;4.65;3.88;;;8.30;99.90;;;;;;5092827;28;20031;-71
2024/01/02 03:23:41;;;;;;;4.50;3.55;;;8.30;99.90;;;;;;5092826;28;20392;-72
2024/01/02 03:26:10;;;;;;;3.88;3.58;;;8.30;99.90;;;;;;5092930;28;20032;-72
2024/01/02 03:28:36;;;;;;;4.28;3.88;;;8.30;99.90;;;;;;5103531;28;20020;-72
2024/01/02 03:31:03;;;;;;;9.18;3.60;;;8.30;99.90;;;;;;5111040;28;20057;-71
2024/01/02 03:33:29;;;;;;;4.22;3.67;;;8.30;99.90;;;;;;5112783;28;20521;-71
2024/01/02 03:35:54;;;;;;;5.97;3.80;;;8.30;99.90;;;;;;5111603;28;20095;-71
2024/01/02 03:38:20;;;;;;;3.97;3.35;;;8.40;99.90;;;;;;5110384;28;20380;-71
2024/01/02 03:40:45;;;;;;;6.18;4.00;;;8.40;99.90;;;;;;5094613;28;20035;-71
2024/01/02 03:43:11;;;;;;;6.50;3.75;;;8.40;99.90;;;;;;5111964;28;20439;-71
2024/01/02 03:45:36;;;;;;;4.40;3.90;;;8.40;99.90;;;;;;5112516;28;20462;-71
2024/01/02 03:48:02;;;;;;;4.30;3.63;;;8.40;99.90;;;;;;5113117;28;20066;-71
2024/01/02 03:50:28;;;;;;;3.88;3.17;;;8.40;99.90;;;;;;5112641;28;20454;-71
2024/01/02 03:52:53;;;;;;;4.05;3.60;;;8.40;99.90;;;;;;5112764;28;20073;-71
2024/01/02 03:55:19;;;;;;;3.75;3.45;;;8.50;99.90;;;;;;5109100;28;20020;-71
2024/01/02 03:57:44;;;;;;;3.90;3.60;;;8.50;99.90;;;;;;5110726;28;20035;-71
2024/01/02 04:00:10;;;;;;;5.85;3.80;;;8.50;99.90;;;;;;5112572;28;20028;-71
2024/01/02 04:02:37;;;;;;;13.10;4.57;;;8.50;99.90;;;;;;5112648;28;20020;-71
2024/01/02 04:05:03;;;;;;;4.22;3.80;;;8.50;99.90;;;;;;5107434;28;20036;-71
2024/01/02 04:07:29;;;;;;;5.78;3.75;;;8.60;99.90;;;;;;5099168;28;20031;-71
2024/01/02 04:09:55;;;;;;;4.75;4.22;;;8.60;99.90;;;;;;5111246;28;20040;-71
2024/01/02 04:12:20;;;;;;;5.13;4.72;;;8.60;99.90;;;;;;5099113;28;20511;-71
2024/01/02 04:14:46;;;;;;;4.85;4.55;;;8.70;99.90;;;;;;5098710;28;20090;-71
2024/01/02 04:17:11;;;;;;;6.10;4.78;;;8.70;99.90;;;;;;5119359;28;20384;-71
2024/01/02 04:19:37;;;;;;;5.13;4.65;;;8.70;99.90;;;;;;5119429;28;20430;-71
2024/01/02 04:22:04;;;;;;;5.55;5.05;;;8.80;99.90;;;;;;5111219;28;20371;-71
2024/01/02 04:24:30;;;;;;;5.35;4.85;;;8.80;99.90;;;;;;5118144;28;20102;-71
2024/01/02 04:26:55;;;;;;;5.03;4.63;;;8.80;99.90;;;;;;5119127;28;20131;-71
2024/01/02 04:29:21;;;;;;;6.55;5.03;;;8.80;99.90;;;;;;5118791;28;20073;-71
2024/01/02 04:31:47;;;;;;;5.60;4.95;;;9.00;99.90;;;;;;5117634;28;20032;-71
2024/01/02 04:34:12;;;;;;;4.88;4.38;;;9.00;99.90;;;;;;5112692;28;20027;-71
2024/01/02 04:36:40;;;;;;;5.75;5.20;;;9.10;99.90;;;;;;5119219;28;20023;-72
2024/01/02 04:39:06;;;;;;;6.07;4.57;;;9.10;99.90;;;;;;5100731;28;20421;-71
2024/01/02 04:41:32;;;;;;;4.40;4.00;;;9.20;99.90;;;;;;5119289;28;20051;-71
2024/01/02 04:43:57;;;;;;;4.68;4.28;;;9.30;99.90;;;;;;5116432;28;20023;-71
2024/01/02 04:46:23;;;;;;;4.70;3.85;;;9.40;99.90;;;;;;5118779;28;20023;-71
2024/01/02 04:48:48;;;;;;;4.47;4.07;;;9.50;99.90;;;;;;5118601;28;20019;-71
2024/01/02 04:51:14;;;;;;;5.25;3.50;;;9.60;99.90;;;;;;5118893;28;20453;-71
2024/01/02 04:53:40;;;;;;;5.05;3.03;;;9.60;99.90;;;;;;5118703;28;20023;-71
2024/01/02 04:56:05;;;;;;;9.80;4.07;;;9.80;99.90;;;;;;5119239;28;20027;-70
2024/01/02 04:58:31;;;;;;;10.50;3.70;;;10.00;99.90;;;;;;5110382;28;20047;-71
2024/01/02 05:00:57;;;;;;;12.68;3.83;;;10.20;99.90;;;;;;5116440;28;20102;-71
2024/01/02 05:03:23;;;;;;;13.70;4.90;;;10.30;99.90;;;;;;5118982;28;20097;-70
2024/01/02 05:05:48;;;;;;;18.08;4.72;;;10.40;99.90;;;;;;5117116;28;20077;-70
2024/01/02 05:08:14;;;;;;;21.60;6.03;;;10.50;99.90;;;;;;5119041;28;20102;-71
2024/01/02 05:10:39;;;;;;;26.48;6.95;;;10.60;99.90;;;;;;5119037;28;20050;-71
2024/01/02 05:13:05;;;;;;;27.05;6.65;;;10.70;99.90;;;;;;5119664;28;20121;-71
2024/01/02 05:15:31;;;;;;;26.48;7.28;;;10.80;99.90;;;;;;5115619;28;20027;-71
2024/01/02 05:17:56;;;;;;;30.58;7.88;;;10.80;99.90;;;;;;5097436;28;20453;-71
2024/01/02 05:20:22;;;;;;;32.80;8.50;;;10.80;99.90;;;;;;5113889;28;20510;-71
2024/01/02 05:22:48;;;;;;;33.50;8.82;;;10.90;99.90;;;;;;5105928;28;20376;-70
2024/01/02 05:25:13;;;;;;;36.65;8.88;;;10.90;99.90;;;;;;5115708;28;20024;-71
2024/01/02 05:27:39;;;;;;;44.97;9.35;;;10.90;99.90;;;;;;5115722;28;20027;-70
2024/01/02 05:30:05;;;;;;;46.45;10.52;;;11.00;99.90;;;;;;5115726;28;20065;-70
2024/01/02 05:32:30;;;;;;;43.55;8.60;;;11.00;99.90;;;;;;5114207;28;20050;-70
2024/01/02 05:34:56;;;;;;;48.78;9.55;;;11.00;99.90;;;;;;5115731;28;20114;-70
2024/01/02 05:37:22;;;;;;;44.08;8.98;;;11.00;99.90;;;;;;5114203;28;20430;-71
2024/01/02 05:39:47;;;;;;;48.15;9.55;;;11.10;99.90;;;;;;5115327;28;20093;-70
2024/01/02 05:42:13;;;;;;;44.33;9.00;;;11.10;99.90;;;;;;5115196;28;20354;-71
2024/01/02 05:44:38;;;;;;;45.05;8.88;;;11.10;99.90;;;;;;5115527;28;20028;-71
2024/01/02 05:47:04;;;;;;;45.63;8.18;;;11.10;99.90;;;;;;5113634;28;20034;-71
2024/01/02 05:49:29;;;;;;;53.22;10.02;;;11.20;99.90;;;;;;5115233;28;20042;-71
2024/01/02 05:51:56;;;;;;;42.00;6.97;;;11.20;99.90;;;;;;5113892;28;20102;-71
2024/01/02 05:54:22;;;;;;;51.95;7.45;;;11.20;99.90;;;;;;5115363;28;20031;-71
2024/01/02 05:56:48;;;;;;;34.15;7.03;;;11.30;99.90;;;;;;5115039;28;20024;-72
2024/01/02 05:59:13;;;;;;;45.50;8.27;;;11.30;99.90;;;;;;5111898;28;20035;-72
2024/01/02 06:01:39;;;;;;;43.17;8.15;;;11.20;99.90;;;;;;5114382;28;20036;-71
2024/01/02 06:04:04;;;;;;;49.97;9.10;;;11.20;99.90;;;;;;5114508;28;20044;-71
2024/01/02 06:06:30;;;;;;;37.75;7.68;;;11.30;99.90;;;;;;5114543;28;20479;-71
2024/01/02 06:08:56;;;;;;;46.92;7.57;;;11.30;99.90;;;;;;5114752;28;20024;-72
2024/01/02 06:11:21;;;;;;;37.60;7.05;;;11.30;99.90;;;;;;5114924;28;20069;-72
2024/01/02 06:13:47;;;;;;;38.35;7.20;;;11.20;99.90;;;;;;5114938;28;20376;-71
2024/01/02 06:16:12;;;;;;;32.80;7.47;;;11.20;99.90;;;;;;5111795;28;20474;-71
2024/01/02 06:18:38;;;;;;;30.98;7.07;;;11.30;99.90;;;;;;5114295;28;20441;-71
2024/01/02 06:21:04;;;;;;;39.85;8.30;;;11.30;99.90;;;;;;5114320;28;20493;-71
2024/01/02 06:23:32;;;;;;;33.42;6.65;;;11.30;99.90;;;;;;5114498;28;20015;-72
2024/01/02 06:25:58;;;;;;;37.60;7.20;;;11.30;99.90;;;;;;5114484;28;20465;-71
2024/01/02 06:28:24;;;;;;;33.83;6.68;;;11.30;99.90;;;;;;5114143;28;20042;-71
2024/01/02 06:30:50;;;;;;;33.10;7.22;;;11.40;99.90;;;;;;5109226;28;20064;-71
2024/01/02 06:33:16;;;;;;;30.33;6.60;;;11.40;99.90;;;;;;5113517;28;20459;-71
2024/01/02 06:35:41;;;;;;;38.35;7.18;;;11.40;99.90;;;;;;5113169;28;20114;-71
2024/01/02 06:38:07;;;;;;;31.85;6.50;;;11.40;99.90;;;;;;5112139;28;20065;-72
2024/01/02 06:40:33;;;;;;;32.88;6.30;;;11.40;99.90;;;;;;5113660;28;20112;-71
2024/01/02 06:42:58;;;;;;;32.55;6.32;;;11.40;99.90;;;;;;5112618;28;20027;-71
2024/01/02 06:45:24;;;;;;;34.63;6.93;;;11.40;99.90;;;;;;5114171;28;20164;-72
2024/01/02 06:47:49;;;;;;;34.45;6.38;;;11.40;99.90;;;;;;5111097;28;20103;-71
2024/01/02 06:50:16;;;;;;;32.97;6.95;;;11.40;99.90;;;;;;5113504;28;20039;-71
2024/01/02 06:52:42;;;;;;;31.48;6.22;;;11.40;99.90;;;;;;5113763;28;20034;-72
2024/01/02 06:55:08;;;;;;;32.92;6.28;;;11.40;99.90;;;;;;5112464;28;20036;-72
2024/01/02 06:57:33;;;;;;;34.05;6.28;;;11.30;99.90;;;;;;5113556;28;20027;-70
2024/01/02 06:59:59;;;;;;;34.03;7.30;;;11.30;99.90;;;;;;5109949;28;20118;-69
2024/01/02 07:02:25;;;;;;;34.80;7.00;;;11.30;99.90;;;;;;5094144;28;20036;-70
2024/01/02 07:04:50;;;;;;;30.73;6.65;;;11.30;99.90;;;;;;5093817;28;20047;-70
2024/01/02 07:07:16;;;;;;;34.08;5.93;;;11.30;99.90;;;;;;5111518;28;20427;-72
2024/01/02 07:09:41;;;;;;;35.75;6.25;;;11.30;99.90;;;;;;5113630;28;20027;-69
2024/01/02 07:12:07;;;;;;;23.85;5.50;;;11.30;99.90;;;;;;5113839;28;20098;-70
2024/01/02 07:14:33;;;;;;;39.47;6.57;;;11.30;99.90;;;;;;5109830;28;20043;-72
2024/01/02 07:16:59;;;;;;;29.58;6.47;;;11.30;99.90;;;;;;5109798;28;20076;-72
2024/01/02 07:19:25;;;;;;;30.27;5.63;;;11.20;99.90;;;;;;5096811;28;20028;-70
2024/01/02 07:21:50;;;;;;;29.40;5.97;;;11.20;99.90;;;;;;5098362;28;20020;-70
2024/01/02 07:24:16;;;;;;;37.20;6.70;;;11.20;99.90;;;;;;5097240;28;20036;-70
2024/01/02 07:26:42;;;;;;;33.05;6.28;;;11.20;99.90;;;;;;5093028;28;20034;-70
2024/01/02 07:29:08;;;;;;;34.28;6.88;;;11.20;99.90;;;;;;5092993;28;20028;-70
2024/01/02 07:31:35;;;;;;;31.17;5.90;;;11.20;99.90;;;;;;5100615;28;20111;-70
2024/01/02 07:34:01;;;;;;;33.35;6.18;;;11.10;99.90;;;;;;5093838;28;20036;-69
2024/01/02 07:36:27;;;;;;;33.40;6.78;;;11.20;99.90;;;;;;5113552;28;20111;-71
2024/01/02 07:38:53;;;;;;;32.90;6.38;;;11.10;99.90;;;;;;5110845;28;20115;-71
2024/01/02 07:41:18;;;;;;;38.28;6.55;;;11.10;99.90;;;;;;5095617;28;20042;-71
2024/01/02 07:43:44;;;;;;;29.98;6.30;;;11.10;99.90;;;;;;5113093;28;20027;-71
2024/01/02 07:46:09;;;;;;;28.77;6.70;;;11.10;99.90;;;;;;5112773;28;20027;-71
2024/01/02 07:48:35;;;;;;;29.23;6.43;;;11.10;99.90;;;;;;5113308;28;20356;-72
2024/01/02 07:51:01;;;;;;;32.63;6.28;;;11.10;99.90;;;;;;5111746;28;20381;-70
2024/01/02 07:53:27;;;;;;;28.83;6.35;;;11.10;99.90;;;;;;5097316;28;20039;-71
2024/01/02 07:55:52;;;;;;;30.13;6.05;;;11.10;99.90;;;;;;5092148;28;20108;-72
2024/01/02 07:58:20;;;;;;;37.00;7.60;;;11.10;99.90;;;;;;5112771;28;20750;-70
2024/01/02 08:00:47;;;;;;;35.58;6.55;;;11.10;99.90;;;;;;5109926;28;20098;-71
2024/01/02 08:03:14;;;;;;;40.00;6.85;;;11.10;99.90;;;;;;5117875;28;20593;-72
2024/01/02 08:05:40;;;;;;;30.38;6.25;;;11.10;99.90;;;;;;5113183;28;20103;-72
2024/01/02 08:08:06;;;;;;;33.42;7.88;;;11.10;99.90;;;;;;5111056;28;20130;-72
2024/01/02 08:10:32;;;;;;;40.53;7.63;;;11.10;99.90;;;;;;5121852;28;20456;-71
2024/01/02 08:12:58;;;;;;;41.20;8.18;;;11.10;99.90;;;;;;5126506;28;20030;-72
2024/01/02 08:15:24;;;;;;;43.00;8.90;;;11.10;99.90;;;;;;5111444;28;20036;-72
2024/01/02 08:17:50;;;;;;;40.72;7.72;;;11.10;99.90;;;;;;5110895;28;20034;-71
2024/01/02 08:20:33;;;;;;;40.42;8.45;;;11.10;99.90;;;;;;5107424;28;20023;-71
2024/01/02 08:22:59;;;;;;;47.60;8.52;;;11.10;99.90;;;;;;5111135;28;20068;-71
2024/01/02 08:25:25;;;;;;;48.47;8.77;;;11.10;99.90;;;;;;5111838;28;20110;-71
2024/01/02 08:27:51;;;;;;;49.92;8.95;;;11.10;99.90;;;;;;5108645;28;20038;-71
2024/01/02 08:30:18;;;;;;;50.15;9.88;;;11.10;99.90;;;;;;5112597;28;20031;-70
2024/01/02 08:32:43;;;;;;;50.10;9.32;;;11.10;99.90;;;;;;5112344;28;20366;-71
2024/01/02 08:35:09;;;;;;;49.15;10.40;;;11.20;99.90;;;;;;5108971;28;20038;-72
2024/01/02 08:37:34;;;;;;;53.67;11.13;;;11.30;99.90;;;;;;5110726;28;20032;-71
2024/01/02 08:40:00;;;;;;;48.75;10.13;;;11.30;99.90;;;;;;5107003;28;20073;-71
2024/01/02 08:42:26;;;;;;;53.95;11.45;;;11.30;99.90;;;;;;5100617;28;20070;-71
2024/01/02 08:44:51;;;;;;;51.25;10.57;;;11.30;99.90;;;;;;5072174;28;20021;-71
2024/01/02 08:47:17;;;;;;;52.10;11.65;;;11.30;99.90;;;;;;5090949;28;20029;-72
2024/01/02 08:49:42;;;;;;;52.03;11.40;;;11.40;99.90;;;;;;5090656;28;20156;-71
2024/01/02 08:52:08;;;;;;;55.05;11.32;;;11.40;99.90;;;;;;5094895;28;20123;-72
2024/01/02 08:54:33;;;;;;;42.38;10.25;;;11.50;99.90;;;;;;5095158;28;20028;-72
2024/01/02 08:56:59;;;;;;;65.95;11.27;;;11.50;99.90;;;;;;5096055;28;20028;-71
2024/01/02 08:59:24;;;;;;;46.80;10.23;;;11.60;99.90;;;;;;5094891;28;20031;-72
2024/01/02 09:01:51;;;;;;;49.60;10.27;;;11.50;99.90;;;;;;5095498;28;20031;-71
2024/01/02 09:04:17;;;;;;;54.50;10.15;;;11.60;99.90;;;;;;5077996;28;20366;-71
2024/01/02 09:06:42;;;;;;;49.58;10.10;;;11.60;99.90;;;;;;5095939;28;20035;-71
2024/01/02 09:09:09;;;;;;;50.83;10.50;;;11.70;99.90;;;;;;5095157;28;20191;-72
2024/01/02 09:11:35;;;;;;;47.05;8.93;;;11.70;99.90;;;;;;5094779;28;20036;-70
2024/01/02 09:14:00;;;;;;;62.38;11.80;;;11.80;99.90;;;;;;5092941;28;20054;-71
2024/01/02 09:16:33;;;;;;;42.97;10.10;;;11.90;99.90;;;;;;5116010;28;20034;-72
2024/01/02 09:18:58;;;;;;;54.22;10.85;;;11.90;99.90;;;;;;5115735;28;20028;-71
2024/01/02 09:21:24;;;;;;;42.28;9.40;;;11.90;99.90;;;;;;5115445;28;20388;-70
2024/01/02 09:23:50;;;;;;;50.28;11.27;;;11.90;99.90;;;;;;5115737;28;20073;-72
2024/01/02 09:26:19;;;;;;;56.58;10.38;;;11.90;99.90;;;;;;5115983;28;20031;-72
2024/01/02 09:28:45;;;;;;;49.97;11.13;;;11.90;99.90;;;;;;5115249;28;20027;-71
2024/01/02 09:31:12;;;;;;;53.05;10.68;;;12.00;99.90;;;;;;5113264;28;20035;-70
2024/01/02 09:33:38;;;;;;;42.47;10.18;;;12.00;99.90;;;;;;5115341;28;20032;-71
2024/01/02 09:36:07;;;;;;;54.13;11.00;;;12.00;99.90;;;;;;5115161;28;20515;-71
2024/01/02 09:38:36;;;;;;;46.78;10.13;;;12.10;99.90;;;;;;5115054;28;20473;-71
2024/01/02 09:41:48;;;;;;;55.42;9.82;;;12.10;99.90;;;;;;5115176;28;20020;-71
2024/01/02 09:44:52;;;;;;;48.13;9.85;;;12.20;99.90;;;;;;5115500;28;20035;-72
2024/01/02 09:47:36;;;;;;;50.30;9.95;;;12.20;99.90;;;;;;5115296;28;20032;-70
2024/01/02 09:50:12;;;;;;;49.50;10.40;;;12.30;99.90;;;;;;5114921;28;20115;-71
2024/01/02 09:53:17;;;;;;;43.45;7.85;;;12.50;99.90;;;;;;5097015;28;20422;-72
2024/01/02 09:55:49;;;;;;;46.00;9.18;;;12.40;99.90;;;;;;5115232;28;20043;-71
2024/01/02 09:58:26;;;;;;;52.88;10.07;;;12.50;99.90;;;;;;5115350;28;20027;-71
2024/01/02 10:01:18;;;;;;;48.33;9.48;;;12.50;99.90;;;;;;5112893;28;20031;-72
2024/01/02 10:03:44;;;;;;;51.58;9.90;;;12.50;99.90;;;;;;5115791;28;20050;-71
2024/01/02 10:06:34;;;;;;;51.42;9.13;;;12.60;99.90;;;;;;5115738;28;20035;-71
2024/01/02 10:09:38;;;;;;;44.60;9.77;;;12.60;99.90;;;;;;5115429;28;20103;-71
2024/01/02 10:12:32;;;;;;;46.47;9.73;;;12.60;99.90;;;;;;5031475;28;20487;-73
2024/01/02 10:15:35;;;;;;;49.55;9.40;;;12.60;99.90;;;;;;5014786;28;20503;-71
2024/01/02 10:18:31;;;;;;;51.78;10.00;;;12.60;99.90;;;;;;5107236;28;20183;-72
2024/01/02 10:21:29;;;;;;;45.53;8.93;;;12.70;99.90;;;;;;5114822;28;20059;-72
2024/01/02 10:24:21;;;;;;;47.75;9.40;;;12.70;99.90;;;;;;5114422;28;20518;-72
2024/01/02 10:27:08;;;;;;;47.00;8.77;;;12.60;99.90;;;;;;5114665;28;20453;-72
2024/01/02 10:29:57;;;;;;;45.70;7.80;;;12.70;99.90;;;;;;5114581;28;20032;-73
2024/01/02 10:32:47;;;;;;;41.00;8.05;;;12.70;99.90;;;;;;5114622;28;20057;-72
2024/01/02 10:35:36;;;;;;;39.97;8.20;;;12.60;99.90;;;;;;5101595;28;20050;-73
2024/01/02 10:38:07;;;;;;;42.28;8.93;;;12.70;99.90;;;;;;5114545;28;20027;-71
2024/01/02 10:40:35;;;;;;;32.63;6.95;;;12.60;99.90;;;;;;5113986;28;20551;-71
2024/01/02 10:43:27;;;;;;;40.72;8.23;;;12.60;99.90;;;;;;5114400;28;20032;-72
2024/01/02 10:46:04;;;;;;;36.80;6.55;;;12.60;99.90;;;;;;5114196;28;20055;-72
2024/01/02 10:48:47;;;;;;;32.92;6.63;;;12.60;99.90;;;;;;5114176;28;20054;-71
2024/01/02 10:51:37;;;;;;;33.60;6.47;;;12.60;99.90;;;;;;5113426;28;20039;-72
2024/01/02 10:54:05;;;;;;;29.33;7.07;;;12.60;99.90;;;;;;5114293;28;20066;-71
2024/01/02 10:56:59;;;;;;;27.58;5.55;;;12.60;99.90;;;;;;5114166;28;20059;-71
2024/01/02 10:59:47;;;;;;;25.40;5.60;;;12.60;99.90;;;;;;5113901;28;20103;-71
2024/01/02 11:02:22;;;;;;;29.45;6.70;;;12.70;99.90;;;;;;5113898;28;20484;-70
2024/01/02 11:04:53;;;;;;;25.33;5.80;;;12.60;99.90;;;;;;5114014;28;20459;-72
2024/01/02 11:07:23;;;;;;;24.13;4.80;;;12.60;99.90;;;;;;5113820;28;20035;-72
2024/01/02 11:09:57;;;;;;;20.13;4.20;;;12.70;99.90;;;;;;5113423;28;20470;-71
2024/01/02 11:12:30;;;;;;;20.38;4.45;;;12.70;99.90;;;;;;5113151;28;20074;-71
2024/01/02 11:14:57;;;;;;;19.73;4.88;;;12.80;99.90;;;;;;5113349;28;20038;-71
2024/01/02 11:17:23;;;;;;;20.15;4.32;;;12.90;99.90;;;;;;5113740;28;20465;-71
2024/01/02 11:20:00;;;;;;;23.88;5.03;;;12.90;99.90;;;;;;5113095;28;20110;-71
2024/01/02 11:22:49;;;;;;;18.33;4.10;;;12.90;99.90;;;;;;5113608;28;20410;-72
2024/01/02 11:25:16;;;;;;;21.35;4.50;;;13.00;99.90;;;;;;5113565;28;20030;-72
2024/01/02 11:27:43;;;;;;;20.77;4.47;;;13.00;99.90;;;;;;5113208;28;20427;-71
2024/01/02 11:30:11;;;;;;;22.67;5.32;;;13.00;99.90;;;;;;5113419;28;20110;-72
2024/01/02 11:33:13;;;;;;;16.42;5.10;;;13.00;99.90;;;;;;5113367;28;20031;-72
2024/01/02 11:36:01;;;;;;;15.38;4.90;;;13.00;99.90;;;;;;5113409;28;20756;-72
2024/01/02 11:38:35;;;;;;;22.13;5.03;;;13.00;99.90;;;;;;5111533;28;20055;-71
2024/01/02 11:41:28;;;;;;;19.55;4.95;;;12.90;99.90;;;;;;5112698;28;20122;-71
2024/01/02 11:43:54;;;;;;;;;;;12.90;99.90;;;;;;5113743;28;20049;-71
2024/01/02 11:46:24;;;;;;;15.75;4.32;;;12.90;99.90;;;;;;5113178;28;19937;-72
2024/01/02 11:49:21;;;;;;;14.80;5.10;;;12.90;99.90;;;;;;5113194;28;20453;-72
2024/01/02 11:51:54;;;;;;;14.27;4.95;;;12.80;99.90;;;;;;5100210;28;20113;-71
2024/01/02 11:54:42;;;;;;;17.65;5.25;;;12.80;99.90;;;;;;5113040;28;20137;-71
2024/01/02 11:57:17;;;;;;;14.05;4.90;;;12.70;99.90;;;;;;5093095;28;20085;-71
2024/01/02 12:00:02;;;;;;;15.48;5.40;;;12.70;99.90;;;;;;5092353;28;20040;-73
2024/01/02 12:02:53;;;;;;;15.55;5.32;;;12.80;99.90;;;;;;5092844;28;20038;-72
2024/01/02 12:05:36;;;;;;;15.50;6.93;;;12.70;99.90;;;;;;5092860;28;20044;-72
2024/01/02 12:08:05;;;;;;;12.68;5.05;;;12.60;99.90;;;;;;5092739;28;20108;-72
2024/01/02 12:10:38;;;;;;;15.23;5.57;;;12.60;99.90;;;;;;5092309;28;20055;-72
2024/01/02 12:13:10;;;;;;;11.75;4.60;;;12.50;99.90;;;;;;5103928;28;20136;-72
2024/01/02 12:15:57;;;;;;;15.07;6.18;;;12.40;99.90;;;;;;5112777;28;20469;-71
2024/01/02 12:18:26;;;;;;;13.30;6.10;;;12.40;99.90;;;;;;5112578;28;20092;-72
2024/01/02 12:21:02;;;;;;;11.77;5.43;;;12.30;99.90;;;;;;5112771;28;20032;-71
2024/01/02 12:23:29;;;;;;;18.25;6.80;;;12.30;99.90;;;;;;5112579;28;20032;-71
2024/01/02 12:26:01;;;;;;;14.27;7.65;;;12.30;99.90;;;;;;5115891;28;20380;-71
2024/01/02 12:28:28;;;;;;;13.02;7.50;;;12.20;99.90;;;;;;5116888;28;20035;-72
2024/01/02 12:31:39;;;;;;;14.13;7.88;;;12.20;99.90;;;;;;5116469;28;20043;-71
2024/01/02 12:34:35;;;;;;;16.95;9.05;;;12.10;99.90;;;;;;5116621;28;20388;-71
2024/01/02 12:37:14;;;;;;;19.08;10.07;;;12.10;99.90;;;;;;5116910;28;20028;-72
2024/01/02 12:39:42;;;;;;;17.85;11.55;;;12.10;99.90;;;;;;5116292;28;20043;-71
2024/01/02 12:42:14;;;;;;;19.27;12.05;;;12.10;99.90;;;;;;5116630;28;20503;-71
2024/01/02 12:44:44;;;;;;;16.92;11.30;;;12.10;99.90;;;;;;5116564;28;20026;-71
2024/01/02 12:47:10;;;;;;;17.33;10.48;;;12.10;99.90;;;;;;5116314;28;20036;-72
2024/01/02 12:49:46;;;;;;;15.32;10.93;;;12.00;99.90;;;;;;5116101;28;20040;-72
2024/01/02 12:52:21;;;;;;;17.75;11.20;;;12.00;99.90;;;;;;5116482;28;20040;-72